Portada
METAR-TAF:

METAR-TAF

Aeropuertos :

Morón de la Frontera, España

Base Aérea de Morón

latitud: 37-09N, longitud: 005-37W, altitud: 87 m

Observación

El informe se hizo hace 41 minutos, a las 16:00 UTC
Viento 12 kt del oeste-suroeste con ráfagas de 23 kt, variando entre sur-suroeste y oeste-noroeste
Temperatura 25°C
Humedad 50%
Presión 1016 hPa
Visibilidad 10 km o más
Escasas nubes a una altura de 4100 ft

METAR: LEMO 281600Z 25012G23KT 200V290 9999 FEW041 25/14 Q1016 NOSIG

Hora: 18:41 (16:41 UTC)

Pronóstico

El informe se hizo hace 2 horas y 41 minutos, a las 14:00 UTC
Pronóstico válido del 28 a las 15 UTC al 28 a las 24 UTC
Viento 9 kt del oeste-suroeste
Visibilidad 10 km o más
Escasas nubes a una altura de 4500 ft

TAF: LEMO 281400Z 2815/2824 24009KT 9999 FEW045

Observaciones y pronósticos meteorológicos de más de 4000 aeropuertos (mensajes METAR y TAF).

Los puntos amarillos y rojos representan las estaciones disponibles.

Ponga el ratón en el punto deseado para ver el nombre de la estación.

Haga clic para ver las observaciones y los pronósticos meteorológicos.

Para cambiar el mapa : haga clic en los botones verdes con una cruz de color negro para hacer un zoom, en el botón verde con un guión para alejar o en las flechas verdes para mapas adyacentes.


METAR-TAF: